sensor_id;sensor_type;location;lat;lon;timestamp;P1;durP1;ratioP1;P2;durP2;ratioP2
9436;SDS011;4757;59.334;18.034;2022-09-16T00:00:44;0.90;;;0.80;;
9436;SDS011;4757;59.334;18.034;2022-09-16T00:03:12;0.73;;;0.73;;
9436;SDS011;4757;59.334;18.034;2022-09-16T00:05:40;0.67;;;0.67;;
9436;SDS011;4757;59.334;18.034;2022-09-16T00:08:08;1.20;;;1.00;;
9436;SDS011;4757;59.334;18.034;2022-09-16T00:10:35;0.80;;;0.80;;
9436;SDS011;4757;59.334;18.034;2022-09-16T00:13:03;1.20;;;0.80;;
9436;SDS011;4757;59.334;18.034;2022-09-16T00:15:30;0.67;;;0.53;;
9436;SDS011;4757;59.334;18.034;2022-09-16T00:17:57;1.27;;;0.83;;
9436;SDS011;4757;59.334;18.034;2022-09-16T00:20:25;0.60;;;0.60;;
9436;SDS011;4757;59.334;18.034;2022-09-16T00:22:53;2.83;;;0.90;;
9436;SDS011;4757;59.334;18.034;2022-09-16T00:25:20;0.80;;;0.80;;
9436;SDS011;4757;59.334;18.034;2022-09-16T00:27:47;2.43;;;0.60;;
9436;SDS011;4757;59.334;18.034;2022-09-16T00:30:14;0.80;;;0.80;;
9436;SDS011;4757;59.334;18.034;2022-09-16T00:32:42;0.50;;;0.50;;
9436;SDS011;4757;59.334;18.034;2022-09-16T00:35:10;0.60;;;0.60;;
9436;SDS011;4757;59.334;18.034;2022-09-16T00:37:37;1.20;;;0.70;;
9436;SDS011;4757;59.334;18.034;2022-09-16T00:40:04;2.13;;;0.70;;
9436;SDS011;4757;59.334;18.034;2022-09-16T00:42:35;0.70;;;0.70;;
9436;SDS011;4757;59.334;18.034;2022-09-16T00:47:49;0.70;;;0.70;;
9436;SDS011;4757;59.334;18.034;2022-09-16T00:50:21;1.73;;;0.70;;
9436;SDS011;4757;59.334;18.034;2022-09-16T00:52:51;0.50;;;0.50;;
9436;SDS011;4757;59.334;18.034;2022-09-16T00:55:25;0.73;;;0.60;;
9436;SDS011;4757;59.334;18.034;2022-09-16T00:57:57;0.77;;;0.73;;
9436;SDS011;4757;59.334;18.034;2022-09-16T01:00:31;1.03;;;0.90;;
9436;SDS011;4757;59.334;18.034;2022-09-16T01:02:58;0.70;;;0.70;;
9436;SDS011;4757;59.334;18.034;2022-09-16T01:05:25;1.50;;;0.80;;
9436;SDS011;4757;59.334;18.034;2022-09-16T01:07:53;0.70;;;0.70;;
9436;SDS011;4757;59.334;18.034;2022-09-16T01:10:21;0.50;;;0.50;;
9436;SDS011;4757;59.334;18.034;2022-09-16T01:12:53;2.30;;;0.97;;
9436;SDS011;4757;59.334;18.034;2022-09-16T01:15:25;0.60;;;0.60;;
9436;SDS011;4757;59.334;18.034;2022-09-16T01:29:20;3.07;;;1.17;;
9436;SDS011;4757;59.334;18.034;2022-09-16T01:31:58;0.73;;;0.73;;
9436;SDS011;4757;59.334;18.034;2022-09-16T01:34:44;1.40;;;0.80;;
9436;SDS011;4757;59.334;18.034;2022-09-16T01:37:24;0.90;;;0.90;;
9436;SDS011;4757;59.334;18.034;2022-09-16T01:47:57;0.80;;;0.80;;
9436;SDS011;4757;59.334;18.034;2022-09-16T01:50:46;1.57;;;1.13;;
9436;SDS011;4757;59.334;18.034;2022-09-16T01:53:26;1.73;;;1.57;;
9436;SDS011;4757;59.334;18.034;2022-09-16T01:56:04;1.07;;;0.93;;
9436;SDS011;4757;59.334;18.034;2022-09-16T01:58:56;1.03;;;1.03;;
9436;SDS011;4757;59.334;18.034;2022-09-16T02:01:39;1.03;;;0.93;;
9436;SDS011;4757;59.334;18.034;2022-09-16T02:04:15;1.00;;;1.00;;
9436;SDS011;4757;59.334;18.034;2022-09-16T02:06:47;0.97;;;0.97;;
9436;SDS011;4757;59.334;18.034;2022-09-16T02:09:19;0.80;;;0.80;;
9436;SDS011;4757;59.334;18.034;2022-09-16T02:11:51;0.80;;;0.80;;
9436;SDS011;4757;59.334;18.034;2022-09-16T02:14:24;1.27;;;1.00;;
9436;SDS011;4757;59.334;18.034;2022-09-16T02:16:56;0.80;;;0.80;;
9436;SDS011;4757;59.334;18.034;2022-09-16T02:19:33;0.90;;;0.90;;
9436;SDS011;4757;59.334;18.034;2022-09-16T02:22:07;1.20;;;0.93;;
9436;SDS011;4757;59.334;18.034;2022-09-16T02:24:37;0.90;;;0.90;;
9436;SDS011;4757;59.334;18.034;2022-09-16T02:27:08;1.17;;;1.17;;
9436;SDS011;4757;59.334;18.034;2022-09-16T02:30:00;1.00;;;0.90;;
9436;SDS011;4757;59.334;18.034;2022-09-16T02:32:31;0.90;;;0.90;;
9436;SDS011;4757;59.334;18.034;2022-09-16T02:35:01;0.97;;;0.97;;
9436;SDS011;4757;59.334;18.034;2022-09-16T02:40:41;1.20;;;1.10;;
9436;SDS011;4757;59.334;18.034;2022-09-16T02:43:09;0.80;;;0.80;;
9436;SDS011;4757;59.334;18.034;2022-09-16T02:48:52;1.17;;;1.00;;
9436;SDS011;4757;59.334;18.034;2022-09-16T02:57:18;1.60;;;1.20;;
9436;SDS011;4757;59.334;18.034;2022-09-16T02:59:45;2.40;;;1.20;;
9436;SDS011;4757;59.334;18.034;2022-09-16T03:02:12;0.93;;;0.93;;
9436;SDS011;4757;59.334;18.034;2022-09-16T03:04:39;1.63;;;1.10;;
9436;SDS011;4757;59.334;18.034;2022-09-16T03:07:07;1.10;;;1.10;;
9436;SDS011;4757;59.334;18.034;2022-09-16T03:09:37;1.37;;;1.27;;
9436;SDS011;4757;59.334;18.034;2022-09-16T03:18:27;1.77;;;1.23;;
9436;SDS011;4757;59.334;18.034;2022-09-16T03:21:09;1.20;;;1.10;;
9436;SDS011;4757;59.334;18.034;2022-09-16T03:23:48;0.87;;;0.87;;
9436;SDS011;4757;59.334;18.034;2022-09-16T03:35:00;1.77;;;1.67;;
9436;SDS011;4757;59.334;18.034;2022-09-16T03:37:42;2.47;;;1.40;;
9436;SDS011;4757;59.334;18.034;2022-09-16T03:40:12;1.20;;;1.10;;
9436;SDS011;4757;59.334;18.034;2022-09-16T03:42:43;1.60;;;1.50;;
9436;SDS011;4757;59.334;18.034;2022-09-16T03:45:15;1.50;;;1.40;;
9436;SDS011;4757;59.334;18.034;2022-09-16T03:47:47;1.90;;;1.80;;
9436;SDS011;4757;59.334;18.034;2022-09-16T03:50:16;1.97;;;1.87;;
9436;SDS011;4757;59.334;18.034;2022-09-16T03:52:44;1.70;;;1.60;;
9436;SDS011;4757;59.334;18.034;2022-09-16T03:55:11;3.20;;;2.23;;
9436;SDS011;4757;59.334;18.034;2022-09-16T03:57:38;1.97;;;1.70;;
9436;SDS011;4757;59.334;18.034;2022-09-16T04:00:06;2.00;;;1.90;;
9436;SDS011;4757;59.334;18.034;2022-09-16T04:02:34;2.47;;;2.27;;
9436;SDS011;4757;59.334;18.034;2022-09-16T04:05:01;2.40;;;2.13;;
9436;SDS011;4757;59.334;18.034;2022-09-16T04:07:30;3.27;;;2.30;;
9436;SDS011;4757;59.334;18.034;2022-09-16T04:09:58;2.60;;;2.40;;
9436;SDS011;4757;59.334;18.034;2022-09-16T04:12:27;2.00;;;1.90;;
9436;SDS011;4757;59.334;18.034;2022-09-16T04:14:54;3.50;;;2.17;;
9436;SDS011;4757;59.334;18.034;2022-09-16T04:17:21;2.07;;;1.90;;
9436;SDS011;4757;59.334;18.034;2022-09-16T04:19:49;4.27;;;2.27;;
9436;SDS011;4757;59.334;18.034;2022-09-16T04:22:16;2.37;;;2.17;;
9436;SDS011;4757;59.334;18.034;2022-09-16T04:24:44;2.87;;;2.23;;
9436;SDS011;4757;59.334;18.034;2022-09-16T04:27:11;1.90;;;1.80;;
9436;SDS011;4757;59.334;18.034;2022-09-16T04:29:38;2.17;;;1.97;;
9436;SDS011;4757;59.334;18.034;2022-09-16T04:32:05;2.23;;;2.07;;
9436;SDS011;4757;59.334;18.034;2022-09-16T04:34:32;3.53;;;2.10;;
9436;SDS011;4757;59.334;18.034;2022-09-16T04:36:59;2.30;;;2.10;;
9436;SDS011;4757;59.334;18.034;2022-09-16T04:39:26;2.27;;;2.10;;
9436;SDS011;4757;59.334;18.034;2022-09-16T04:41:53;2.77;;;2.00;;
9436;SDS011;4757;59.334;18.034;2022-09-16T04:44:20;2.50;;;2.30;;
9436;SDS011;4757;59.334;18.034;2022-09-16T04:46:47;2.13;;;1.97;;
9436;SDS011;4757;59.334;18.034;2022-09-16T04:49:14;2.50;;;2.30;;
9436;SDS011;4757;59.334;18.034;2022-09-16T04:51:41;2.90;;;2.40;;
9436;SDS011;4757;59.334;18.034;2022-09-16T04:54:08;2.17;;;2.00;;
9436;SDS011;4757;59.334;18.034;2022-09-16T04:56:36;3.73;;;2.50;;
9436;SDS011;4757;59.334;18.034;2022-09-16T04:59:04;2.83;;;2.40;;
9436;SDS011;4757;59.334;18.034;2022-09-16T05:01:32;4.10;;;2.77;;
9436;SDS011;4757;59.334;18.034;2022-09-16T05:04:02;4.27;;;2.37;;
9436;SDS011;4757;59.334;18.034;2022-09-16T05:06:34;2.83;;;2.40;;
9436;SDS011;4757;59.334;18.034;2022-09-16T05:09:03;3.27;;;2.20;;
9436;SDS011;4757;59.334;18.034;2022-09-16T05:11:31;2.50;;;2.30;;
9436;SDS011;4757;59.334;18.034;2022-09-16T05:14:00;2.30;;;2.10;;
9436;SDS011;4757;59.334;18.034;2022-09-16T05:16:28;6.33;;;2.53;;
9436;SDS011;4757;59.334;18.034;2022-09-16T05:18:56;2.73;;;2.53;;
9436;SDS011;4757;59.334;18.034;2022-09-16T05:21:25;2.60;;;2.40;;
9436;SDS011;4757;59.334;18.034;2022-09-16T05:23:54;3.83;;;2.53;;
9436;SDS011;4757;59.334;18.034;2022-09-16T05:26:25;3.57;;;2.50;;
9436;SDS011;4757;59.334;18.034;2022-09-16T05:28:54;2.67;;;2.47;;
9436;SDS011;4757;59.334;18.034;2022-09-16T05:31:25;5.17;;;2.73;;
9436;SDS011;4757;59.334;18.034;2022-09-16T05:33:56;3.03;;;2.50;;
9436;SDS011;4757;59.334;18.034;2022-09-16T05:36:30;2.60;;;2.40;;
9436;SDS011;4757;59.334;18.034;2022-09-16T05:38:58;2.27;;;2.07;;
9436;SDS011;4757;59.334;18.034;2022-09-16T05:41:46;2.70;;;2.50;;
9436;SDS011;4757;59.334;18.034;2022-09-16T05:44:13;3.33;;;2.10;;
9436;SDS011;4757;59.334;18.034;2022-09-16T05:46:40;3.33;;;2.23;;
9436;SDS011;4757;59.334;18.034;2022-09-16T05:49:08;1.97;;;1.77;;
9436;SDS011;4757;59.334;18.034;2022-09-16T05:51:37;2.17;;;1.90;;
9436;SDS011;4757;59.334;18.034;2022-09-16T05:54:05;2.00;;;1.80;;
9436;SDS011;4757;59.334;18.034;2022-09-16T05:56:32;1.70;;;1.60;;
9436;SDS011;4757;59.334;18.034;2022-09-16T05:58:59;1.50;;;1.40;;
9436;SDS011;4757;59.334;18.034;2022-09-16T06:01:33;1.73;;;1.50;;
9436;SDS011;4757;59.334;18.034;2022-09-16T06:04:02;1.60;;;1.50;;
9436;SDS011;4757;59.334;18.034;2022-09-16T06:06:31;1.97;;;1.70;;
9436;SDS011;4757;59.334;18.034;2022-09-16T06:09:04;1.97;;;1.80;;
9436;SDS011;4757;59.334;18.034;2022-09-16T06:11:34;1.97;;;1.70;;
9436;SDS011;4757;59.334;18.034;2022-09-16T06:14:03;4.40;;;1.80;;
9436;SDS011;4757;59.334;18.034;2022-09-16T06:16:31;1.67;;;1.47;;
9436;SDS011;4757;59.334;18.034;2022-09-16T06:19:02;1.77;;;1.67;;
9436;SDS011;4757;59.334;18.034;2022-09-16T06:21:31;2.30;;;1.87;;
9436;SDS011;4757;59.334;18.034;2022-09-16T06:23:58;2.50;;;1.70;;
9436;SDS011;4757;59.334;18.034;2022-09-16T06:26:26;3.20;;;1.60;;
9436;SDS011;4757;59.334;18.034;2022-09-16T06:28:53;1.67;;;1.27;;
9436;SDS011;4757;59.334;18.034;2022-09-16T06:31:22;2.23;;;1.53;;
9436;SDS011;4757;59.334;18.034;2022-09-16T06:33:51;1.80;;;1.47;;
9436;SDS011;4757;59.334;18.034;2022-09-16T06:36:20;2.03;;;1.80;;
9436;SDS011;4757;59.334;18.034;2022-09-16T06:38:49;1.90;;;1.50;;
9436;SDS011;4757;59.334;18.034;2022-09-16T06:41:17;2.70;;;2.17;;
9436;SDS011;4757;59.334;18.034;2022-09-16T06:43:48;2.40;;;2.20;;
9436;SDS011;4757;59.334;18.034;2022-09-16T06:46:23;1.63;;;1.53;;
9436;SDS011;4757;59.334;18.034;2022-09-16T06:48:52;1.80;;;1.70;;
9436;SDS011;4757;59.334;18.034;2022-09-16T06:51:26;3.07;;;1.70;;
9436;SDS011;4757;59.334;18.034;2022-09-16T06:53:58;4.27;;;3.40;;
9436;SDS011;4757;59.334;18.034;2022-09-16T06:56:27;5.13;;;3.63;;
9436;SDS011;4757;59.334;18.034;2022-09-16T06:58:54;3.63;;;3.27;;
9436;SDS011;4757;59.334;18.034;2022-09-16T07:01:26;2.67;;;1.53;;
9436;SDS011;4757;59.334;18.034;2022-09-16T07:03:55;1.30;;;1.17;;
9436;SDS011;4757;59.334;18.034;2022-09-16T07:06:24;1.53;;;1.10;;
9436;SDS011;4757;59.334;18.034;2022-09-16T07:09:14;1.77;;;1.10;;
9436;SDS011;4757;59.334;18.034;2022-09-16T07:11:41;2.13;;;1.30;;
9436;SDS011;4757;59.334;18.034;2022-09-16T07:14:08;1.47;;;1.20;;
9436;SDS011;4757;59.334;18.034;2022-09-16T07:16:35;3.20;;;1.30;;
9436;SDS011;4757;59.334;18.034;2022-09-16T07:19:03;1.00;;;1.00;;
9436;SDS011;4757;59.334;18.034;2022-09-16T07:21:30;1.23;;;1.07;;
9436;SDS011;4757;59.334;18.034;2022-09-16T07:23:58;1.47;;;1.27;;
9436;SDS011;4757;59.334;18.034;2022-09-16T07:26:27;1.37;;;1.27;;
9436;SDS011;4757;59.334;18.034;2022-09-16T07:28:57;2.37;;;1.50;;
9436;SDS011;4757;59.334;18.034;2022-09-16T07:31:26;1.40;;;1.30;;
9436;SDS011;4757;59.334;18.034;2022-09-16T07:33:56;2.03;;;1.23;;
9436;SDS011;4757;59.334;18.034;2022-09-16T07:36:36;1.60;;;1.10;;
9436;SDS011;4757;59.334;18.034;2022-09-16T07:39:05;1.47;;;1.10;;
9436;SDS011;4757;59.334;18.034;2022-09-16T07:41:34;1.07;;;1.07;;
9436;SDS011;4757;59.334;18.034;2022-09-16T07:44:02;1.67;;;1.30;;
9436;SDS011;4757;59.334;18.034;2022-09-16T07:46:31;2.63;;;1.47;;
9436;SDS011;4757;59.334;18.034;2022-09-16T07:49:00;1.50;;;1.23;;
9436;SDS011;4757;59.334;18.034;2022-09-16T07:51:28;1.63;;;1.10;;
9436;SDS011;4757;59.334;18.034;2022-09-16T07:54:00;1.40;;;1.20;;
9436;SDS011;4757;59.334;18.034;2022-09-16T07:56:34;1.33;;;1.23;;
9436;SDS011;4757;59.334;18.034;2022-09-16T07:59:03;1.30;;;1.20;;
9436;SDS011;4757;59.334;18.034;2022-09-16T08:01:32;3.30;;;1.60;;
9436;SDS011;4757;59.334;18.034;2022-09-16T08:04:03;1.50;;;1.33;;
9436;SDS011;4757;59.334;18.034;2022-09-16T08:06:30;2.67;;;1.60;;
9436;SDS011;4757;59.334;18.034;2022-09-16T08:08:59;2.53;;;1.50;;
9436;SDS011;4757;59.334;18.034;2022-09-16T08:11:40;3.40;;;1.27;;
9436;SDS011;4757;59.334;18.034;2022-09-16T08:14:07;4.73;;;1.20;;
9436;SDS011;4757;59.334;18.034;2022-09-16T08:16:34;1.13;;;0.97;;
9436;SDS011;4757;59.334;18.034;2022-09-16T08:19:01;1.87;;;1.70;;
9436;SDS011;4757;59.334;18.034;2022-09-16T08:21:29;1.23;;;1.00;;
9436;SDS011;4757;59.334;18.034;2022-09-16T08:23:56;1.20;;;1.00;;
9436;SDS011;4757;59.334;18.034;2022-09-16T08:26:23;1.20;;;1.10;;
9436;SDS011;4757;59.334;18.034;2022-09-16T08:28:53;3.77;;;1.10;;
9436;SDS011;4757;59.334;18.034;2022-09-16T08:31:34;1.10;;;1.10;;
9436;SDS011;4757;59.334;18.034;2022-09-16T08:34:01;2.43;;;1.50;;
9436;SDS011;4757;59.334;18.034;2022-09-16T08:36:28;1.67;;;1.20;;
9436;SDS011;4757;59.334;18.034;2022-09-16T08:38:58;1.33;;;1.00;;
9436;SDS011;4757;59.334;18.034;2022-09-16T08:47:00;1.77;;;0.97;;
9436;SDS011;4757;59.334;18.034;2022-09-16T08:52:13;2.10;;;1.20;;
9436;SDS011;4757;59.334;18.034;2022-09-16T08:57:31;1.83;;;1.60;;
9436;SDS011;4757;59.334;18.034;2022-09-16T09:00:09;2.97;;;1.70;;
9436;SDS011;4757;59.334;18.034;2022-09-16T09:11:26;5.13;;;1.53;;
9436;SDS011;4757;59.334;18.034;2022-09-16T09:17:08;1.57;;;1.30;;
9436;SDS011;4757;59.334;18.034;2022-09-16T09:20:08;2.67;;;1.30;;
9436;SDS011;4757;59.334;18.034;2022-09-16T09:23:07;3.40;;;1.23;;
9436;SDS011;4757;59.334;18.034;2022-09-16T09:26:04;1.87;;;1.10;;
9436;SDS011;4757;59.334;18.034;2022-09-16T09:42:16;0.90;;;0.90;;
9436;SDS011;4757;59.334;18.034;2022-09-16T09:48:11;2.50;;;1.10;;
9436;SDS011;4757;59.334;18.034;2022-09-16T09:50:25;2.00;;;1.40;;
9436;SDS011;4757;59.334;18.034;2022-09-16T09:53:05;1.37;;;1.17;;
9436;SDS011;4757;59.334;18.034;2022-09-16T09:55:57;2.10;;;1.37;;
9436;SDS011;4757;59.334;18.034;2022-09-16T09:58:56;1.20;;;1.10;;
9436;SDS011;4757;59.334;18.034;2022-09-16T10:01:35;1.17;;;1.07;;
9436;SDS011;4757;59.334;18.034;2022-09-16T10:04:04;1.50;;;1.10;;
9436;SDS011;4757;59.334;18.034;2022-09-16T10:06:42;2.40;;;1.17;;
9436;SDS011;4757;59.334;18.034;2022-09-16T10:09:11;4.67;;;2.03;;
9436;SDS011;4757;59.334;18.034;2022-09-16T10:11:47;3.97;;;1.47;;
9436;SDS011;4757;59.334;18.034;2022-09-16T10:16:52;1.40;;;1.30;;
9436;SDS011;4757;59.334;18.034;2022-09-16T10:19:24;1.47;;;1.37;;
9436;SDS011;4757;59.334;18.034;2022-09-16T10:21:53;2.30;;;1.50;;
9436;SDS011;4757;59.334;18.034;2022-09-16T10:24:35;1.23;;;1.13;;
9436;SDS011;4757;59.334;18.034;2022-09-16T10:27:25;1.50;;;1.40;;
9436;SDS011;4757;59.334;18.034;2022-09-16T10:32:32;2.20;;;1.80;;
9436;SDS011;4757;59.334;18.034;2022-09-16T10:35:27;4.27;;;1.80;;
9436;SDS011;4757;59.334;18.034;2022-09-16T10:38:00;4.70;;;2.63;;
9436;SDS011;4757;59.334;18.034;2022-09-16T10:40:30;2.20;;;1.93;;
9436;SDS011;4757;59.334;18.034;2022-09-16T10:43:03;0.80;;;0.80;;
9436;SDS011;4757;59.334;18.034;2022-09-16T10:45:48;1.80;;;1.00;;
9436;SDS011;4757;59.334;18.034;2022-09-16T10:48:19;1.47;;;1.37;;
9436;SDS011;4757;59.334;18.034;2022-09-16T10:50:56;2.10;;;1.13;;
9436;SDS011;4757;59.334;18.034;2022-09-16T10:55:59;4.13;;;1.63;;
9436;SDS011;4757;59.334;18.034;2022-09-16T10:58:32;1.20;;;1.20;;
9436;SDS011;4757;59.334;18.034;2022-09-16T11:31:13;1.10;;;1.00;;
9436;SDS011;4757;59.334;18.034;2022-09-16T11:36:39;1.03;;;0.90;;
9436;SDS011;4757;59.334;18.034;2022-09-16T11:42:02;1.80;;;0.70;;
9436;SDS011;4757;59.334;18.034;2022-09-16T11:44:43;0.83;;;0.73;;
9436;SDS011;4757;59.334;18.034;2022-09-16T11:47:45;1.60;;;0.90;;
9436;SDS011;4757;59.334;18.034;2022-09-16T11:59:19;2.97;;;1.17;;
9436;SDS011;4757;59.334;18.034;2022-09-16T12:01:56;2.67;;;1.03;;
9436;SDS011;4757;59.334;18.034;2022-09-16T12:04:38;2.13;;;1.20;;
9436;SDS011;4757;59.334;18.034;2022-09-16T12:12:36;2.23;;;1.10;;
9436;SDS011;4757;59.334;18.034;2022-09-16T12:17:57;4.43;;;1.00;;
9436;SDS011;4757;59.334;18.034;2022-09-16T12:20:34;2.07;;;1.20;;
9436;SDS011;4757;59.334;18.034;2022-09-16T12:23:22;2.10;;;1.40;;
9436;SDS011;4757;59.334;18.034;2022-09-16T12:26:07;2.77;;;1.23;;
9436;SDS011;4757;59.334;18.034;2022-09-16T12:31:44;3.07;;;1.03;;
9436;SDS011;4757;59.334;18.034;2022-09-16T12:34:36;0.57;;;0.57;;
9436;SDS011;4757;59.334;18.034;2022-09-16T12:39:43;0.80;;;0.80;;
9436;SDS011;4757;59.334;18.034;2022-09-16T12:48:16;3.60;;;1.00;;
9436;SDS011;4757;59.334;18.034;2022-09-16T12:53:40;1.93;;;1.77;;
9436;SDS011;4757;59.334;18.034;2022-09-16T13:01:46;2.00;;;1.20;;
9436;SDS011;4757;59.334;18.034;2022-09-16T13:04:29;2.33;;;1.27;;
9436;SDS011;4757;59.334;18.034;2022-09-16T13:07:03;0.87;;;0.63;;
9436;SDS011;4757;59.334;18.034;2022-09-16T13:09:34;0.50;;;0.50;;
9436;SDS011;4757;59.334;18.034;2022-09-16T13:12:05;1.00;;;0.80;;
9436;SDS011;4757;59.334;18.034;2022-09-16T13:15:04;0.67;;;0.67;;
9436;SDS011;4757;59.334;18.034;2022-09-16T13:20:21;0.93;;;0.73;;
9436;SDS011;4757;59.334;18.034;2022-09-16T13:33:40;0.50;;;0.50;;
9436;SDS011;4757;59.334;18.034;2022-09-16T13:36:33;1.10;;;0.83;;
9436;SDS011;4757;59.334;18.034;2022-09-16T13:39:02;2.33;;;0.90;;
9436;SDS011;4757;59.334;18.034;2022-09-16T13:41:37;2.20;;;1.00;;
9436;SDS011;4757;59.334;18.034;2022-09-16T13:50:06;1.00;;;0.90;;
9436;SDS011;4757;59.334;18.034;2022-09-16T13:52:47;1.37;;;1.00;;
9436;SDS011;4757;59.334;18.034;2022-09-16T13:55:19;1.40;;;1.00;;
9436;SDS011;4757;59.334;18.034;2022-09-16T14:03:26;1.20;;;0.87;;
9436;SDS011;4757;59.334;18.034;2022-09-16T14:06:02;0.80;;;0.80;;
9436;SDS011;4757;59.334;18.034;2022-09-16T14:08:51;0.80;;;0.70;;
9436;SDS011;4757;59.334;18.034;2022-09-16T14:11:40;1.13;;;0.90;;
9436;SDS011;4757;59.334;18.034;2022-09-16T14:14:39;1.57;;;1.10;;
9436;SDS011;4757;59.334;18.034;2022-09-16T14:17:18;1.10;;;1.00;;
9436;SDS011;4757;59.334;18.034;2022-09-16T14:19:59;1.30;;;1.20;;
9436;SDS011;4757;59.334;18.034;2022-09-16T14:22:29;3.10;;;1.63;;
9436;SDS011;4757;59.334;18.034;2022-09-16T14:24:57;1.03;;;1.03;;
9436;SDS011;4757;59.334;18.034;2022-09-16T14:27:43;1.20;;;1.10;;
9436;SDS011;4757;59.334;18.034;2022-09-16T14:30:34;1.30;;;0.93;;
9436;SDS011;4757;59.334;18.034;2022-09-16T14:33:16;1.33;;;1.23;;
9436;SDS011;4757;59.334;18.034;2022-09-16T14:36:15;2.63;;;1.00;;
9436;SDS011;4757;59.334;18.034;2022-09-16T14:39:14;1.43;;;1.33;;
9436;SDS011;4757;59.334;18.034;2022-09-16T14:41:55;1.27;;;0.70;;
9436;SDS011;4757;59.334;18.034;2022-09-16T14:45:12;0.80;;;0.80;;
9436;SDS011;4757;59.334;18.034;2022-09-16T14:47:58;1.70;;;1.30;;
9436;SDS011;4757;59.334;18.034;2022-09-16T14:50:49;4.37;;;3.87;;
9436;SDS011;4757;59.334;18.034;2022-09-16T14:53:51;1.60;;;1.50;;
9436;SDS011;4757;59.334;18.034;2022-09-16T14:59:52;1.47;;;1.37;;
9436;SDS011;4757;59.334;18.034;2022-09-16T15:03:10;1.77;;;1.10;;
9436;SDS011;4757;59.334;18.034;2022-09-16T15:06:00;1.20;;;1.10;;
9436;SDS011;4757;59.334;18.034;2022-09-16T15:08:42;1.13;;;1.03;;
9436;SDS011;4757;59.334;18.034;2022-09-16T15:11:34;1.10;;;1.00;;
9436;SDS011;4757;59.334;18.034;2022-09-16T15:14:14;1.20;;;1.10;;
9436;SDS011;4757;59.334;18.034;2022-09-16T15:16:53;0.70;;;0.70;;
9436;SDS011;4757;59.334;18.034;2022-09-16T15:19:36;1.90;;;1.57;;
9436;SDS011;4757;59.334;18.034;2022-09-16T15:22:12;3.27;;;2.97;;
9436;SDS011;4757;59.334;18.034;2022-09-16T15:24:44;4.03;;;3.63;;
9436;SDS011;4757;59.334;18.034;2022-09-16T15:27:50;7.57;;;4.33;;
9436;SDS011;4757;59.334;18.034;2022-09-16T15:30:31;3.80;;;3.07;;
9436;SDS011;4757;59.334;18.034;2022-09-16T15:33:51;7.57;;;2.37;;
9436;SDS011;4757;59.334;18.034;2022-09-16T15:36:39;3.93;;;3.60;;
9436;SDS011;4757;59.334;18.034;2022-09-16T15:39:37;5.27;;;3.70;;
9436;SDS011;4757;59.334;18.034;2022-09-16T15:42:18;4.63;;;3.67;;
9436;SDS011;4757;59.334;18.034;2022-09-16T15:45:17;3.03;;;2.30;;
9436;SDS011;4757;59.334;18.034;2022-09-16T15:47:59;1.57;;;1.47;;
9436;SDS011;4757;59.334;18.034;2022-09-16T15:51:07;5.37;;;4.87;;
9436;SDS011;4757;59.334;18.034;2022-09-16T15:54:16;1.40;;;1.30;;
9436;SDS011;4757;59.334;18.034;2022-09-16T15:56:59;3.73;;;2.20;;
9436;SDS011;4757;59.334;18.034;2022-09-16T16:00:05;4.87;;;2.93;;
9436;SDS011;4757;59.334;18.034;2022-09-16T16:05:16;3.80;;;2.43;;
9436;SDS011;4757;59.334;18.034;2022-09-16T16:07:51;2.13;;;1.43;;
9436;SDS011;4757;59.334;18.034;2022-09-16T16:10:23;4.40;;;1.80;;
9436;SDS011;4757;59.334;18.034;2022-09-16T16:12:52;3.07;;;2.77;;
9436;SDS011;4757;59.334;18.034;2022-09-16T16:15:21;1.90;;;1.70;;
9436;SDS011;4757;59.334;18.034;2022-09-16T16:17:51;1.97;;;1.87;;
9436;SDS011;4757;59.334;18.034;2022-09-16T16:20:20;3.37;;;1.57;;
9436;SDS011;4757;59.334;18.034;2022-09-16T16:22:48;11.37;;;3.73;;
9436;SDS011;4757;59.334;18.034;2022-09-16T16:25:16;5.50;;;4.23;;
9436;SDS011;4757;59.334;18.034;2022-09-16T16:27:43;4.70;;;3.27;;
9436;SDS011;4757;59.334;18.034;2022-09-16T16:30:10;10.73;;;6.13;;
9436;SDS011;4757;59.334;18.034;2022-09-16T16:32:38;7.23;;;4.53;;
9436;SDS011;4757;59.334;18.034;2022-09-16T16:35:05;5.87;;;4.20;;
9436;SDS011;4757;59.334;18.034;2022-09-16T16:37:32;2.77;;;2.57;;
9436;SDS011;4757;59.334;18.034;2022-09-16T16:40:12;3.90;;;2.17;;
9436;SDS011;4757;59.334;18.034;2022-09-16T16:42:40;4.33;;;2.43;;
9436;SDS011;4757;59.334;18.034;2022-09-16T16:45:12;3.50;;;2.53;;
9436;SDS011;4757;59.334;18.034;2022-09-16T16:47:40;3.60;;;2.37;;
9436;SDS011;4757;59.334;18.034;2022-09-16T16:50:09;1.67;;;1.57;;
9436;SDS011;4757;59.334;18.034;2022-09-16T16:52:36;1.50;;;1.40;;
9436;SDS011;4757;59.334;18.034;2022-09-16T16:55:04;2.20;;;1.30;;
9436;SDS011;4757;59.334;18.034;2022-09-16T16:57:32;1.70;;;1.60;;
9436;SDS011;4757;59.334;18.034;2022-09-16T16:59:59;2.90;;;1.63;;
9436;SDS011;4757;59.334;18.034;2022-09-16T17:02:26;4.33;;;2.97;;
9436;SDS011;4757;59.334;18.034;2022-09-16T17:04:53;2.87;;;2.20;;
9436;SDS011;4757;59.334;18.034;2022-09-16T17:07:20;1.40;;;1.30;;
9436;SDS011;4757;59.334;18.034;2022-09-16T17:09:52;2.10;;;1.33;;
9436;SDS011;4757;59.334;18.034;2022-09-16T17:12:19;1.63;;;1.50;;
9436;SDS011;4757;59.334;18.034;2022-09-16T17:14:46;5.53;;;1.90;;
9436;SDS011;4757;59.334;18.034;2022-09-16T17:17:13;2.00;;;1.80;;
9436;SDS011;4757;59.334;18.034;2022-09-16T17:19:40;1.53;;;1.37;;
9436;SDS011;4757;59.334;18.034;2022-09-16T17:22:07;1.70;;;1.60;;
9436;SDS011;4757;59.334;18.034;2022-09-16T17:24:34;3.60;;;1.40;;
9436;SDS011;4757;59.334;18.034;2022-09-16T17:27:02;1.90;;;1.50;;
9436;SDS011;4757;59.334;18.034;2022-09-16T17:29:29;2.10;;;1.90;;
9436;SDS011;4757;59.334;18.034;2022-09-16T17:31:57;3.67;;;1.40;;
9436;SDS011;4757;59.334;18.034;2022-09-16T17:34:26;2.30;;;1.80;;
9436;SDS011;4757;59.334;18.034;2022-09-16T17:36:53;1.63;;;1.53;;
9436;SDS011;4757;59.334;18.034;2022-09-16T17:39:20;2.80;;;1.80;;
9436;SDS011;4757;59.334;18.034;2022-09-16T17:41:48;1.50;;;1.40;;
9436;SDS011;4757;59.334;18.034;2022-09-16T17:44:16;1.53;;;1.43;;
9436;SDS011;4757;59.334;18.034;2022-09-16T17:46:44;1.73;;;1.60;;
9436;SDS011;4757;59.334;18.034;2022-09-16T17:49:13;3.77;;;1.80;;
9436;SDS011;4757;59.334;18.034;2022-09-16T17:51:42;2.00;;;1.60;;
9436;SDS011;4757;59.334;18.034;2022-09-16T17:54:09;2.53;;;2.10;;
9436;SDS011;4757;59.334;18.034;2022-09-16T17:56:36;3.23;;;2.70;;
9436;SDS011;4757;59.334;18.034;2022-09-16T17:59:03;2.77;;;2.00;;
9436;SDS011;4757;59.334;18.034;2022-09-16T18:01:31;2.03;;;1.80;;
9436;SDS011;4757;59.334;18.034;2022-09-16T18:03:58;1.77;;;1.67;;
9436;SDS011;4757;59.334;18.034;2022-09-16T18:06:26;3.30;;;2.10;;
9436;SDS011;4757;59.334;18.034;2022-09-16T18:08:59;1.70;;;1.60;;
9436;SDS011;4757;59.334;18.034;2022-09-16T18:11:26;5.03;;;2.53;;
9436;SDS011;4757;59.334;18.034;2022-09-16T18:13:54;3.20;;;1.60;;
9436;SDS011;4757;59.334;18.034;2022-09-16T18:16:22;3.43;;;1.87;;
9436;SDS011;4757;59.334;18.034;2022-09-16T18:18:51;2.43;;;1.70;;
9436;SDS011;4757;59.334;18.034;2022-09-16T18:21:20;2.07;;;1.83;;
9436;SDS011;4757;59.334;18.034;2022-09-16T18:23:53;2.40;;;2.13;;
9436;SDS011;4757;59.334;18.034;2022-09-16T18:26:22;2.50;;;2.07;;
9436;SDS011;4757;59.334;18.034;2022-09-16T18:28:50;2.83;;;2.20;;
9436;SDS011;4757;59.334;18.034;2022-09-16T18:31:38;2.17;;;1.90;;
9436;SDS011;4757;59.334;18.034;2022-09-16T18:34:06;2.00;;;1.70;;
9436;SDS011;4757;59.334;18.034;2022-09-16T18:36:34;1.70;;;1.60;;
9436;SDS011;4757;59.334;18.034;2022-09-16T18:39:03;1.63;;;1.53;;
9436;SDS011;4757;59.334;18.034;2022-09-16T18:41:33;1.63;;;1.40;;
9436;SDS011;4757;59.334;18.034;2022-09-16T18:44:26;2.27;;;1.50;;
9436;SDS011;4757;59.334;18.034;2022-09-16T18:46:52;2.13;;;1.30;;
9436;SDS011;4757;59.334;18.034;2022-09-16T18:49:19;2.23;;;1.63;;
9436;SDS011;4757;59.334;18.034;2022-09-16T18:51:53;1.67;;;1.20;;
9436;SDS011;4757;59.334;18.034;2022-09-16T18:54:27;1.40;;;1.30;;
9436;SDS011;4757;59.334;18.034;2022-09-16T18:56:58;2.00;;;1.30;;
9436;SDS011;4757;59.334;18.034;2022-09-16T18:59:27;2.43;;;1.43;;